sensor_id;sensor_type;location;lat;lon;timestamp;P1;durP1;ratioP1;P2;durP2;ratioP2
11197;SDS011;5655;48.744;9.162;2022-09-20T00:00:34;4.65;;;3.00;;
11197;SDS011;5655;48.744;9.162;2022-09-20T00:02:59;6.15;;;2.80;;
11197;SDS011;5655;48.744;9.162;2022-09-20T00:05:26;6.53;;;2.85;;
11197;SDS011;5655;48.744;9.162;2022-09-20T00:07:51;5.85;;;3.45;;
11197;SDS011;5655;48.744;9.162;2022-09-20T00:10:16;9.18;;;2.65;;
11197;SDS011;5655;48.744;9.162;2022-09-20T00:12:42;6.90;;;2.30;;
11197;SDS011;5655;48.744;9.162;2022-09-20T00:15:08;8.50;;;3.55;;
11197;SDS011;5655;48.744;9.162;2022-09-20T00:17:33;6.80;;;2.70;;
11197;SDS011;5655;48.744;9.162;2022-09-20T00:19:58;4.10;;;2.70;;
11197;SDS011;5655;48.744;9.162;2022-09-20T00:22:24;5.35;;;2.60;;
11197;SDS011;5655;48.744;9.162;2022-09-20T00:24:49;3.92;;;2.40;;
11197;SDS011;5655;48.744;9.162;2022-09-20T00:27:14;6.78;;;2.47;;
11197;SDS011;5655;48.744;9.162;2022-09-20T00:29:40;4.38;;;2.22;;
11197;SDS011;5655;48.744;9.162;2022-09-20T00:32:06;5.10;;;2.22;;
11197;SDS011;5655;48.744;9.162;2022-09-20T00:34:31;5.57;;;2.10;;
11197;SDS011;5655;48.744;9.162;2022-09-20T00:37:15;5.25;;;2.17;;
11197;SDS011;5655;48.744;9.162;2022-09-20T00:39:40;7.72;;;3.17;;
11197;SDS011;5655;48.744;9.162;2022-09-20T00:42:05;6.22;;;2.15;;
11197;SDS011;5655;48.744;9.162;2022-09-20T00:52:40;6.35;;;2.10;;
11197;SDS011;5655;48.744;9.162;2022-09-20T00:55:09;4.57;;;2.30;;
11197;SDS011;5655;48.744;9.162;2022-09-20T00:57:35;5.60;;;2.15;;
11197;SDS011;5655;48.744;9.162;2022-09-20T01:00:06;6.80;;;2.35;;
11197;SDS011;5655;48.744;9.162;2022-09-20T01:02:33;6.32;;;2.17;;
11197;SDS011;5655;48.744;9.162;2022-09-20T01:05:01;5.05;;;2.33;;
11197;SDS011;5655;48.744;9.162;2022-09-20T01:07:27;6.50;;;2.03;;
11197;SDS011;5655;48.744;9.162;2022-09-20T01:09:53;6.50;;;2.65;;
11197;SDS011;5655;48.744;9.162;2022-09-20T01:12:20;6.45;;;2.00;;
11197;SDS011;5655;48.744;9.162;2022-09-20T01:14:49;6.07;;;2.03;;
11197;SDS011;5655;48.744;9.162;2022-09-20T01:17:16;5.22;;;2.10;;
11197;SDS011;5655;48.744;9.162;2022-09-20T01:22:47;7.00;;;2.03;;
11197;SDS011;5655;48.744;9.162;2022-09-20T01:27:53;8.30;;;2.22;;
11197;SDS011;5655;48.744;9.162;2022-09-20T01:30:20;6.53;;;2.28;;
11197;SDS011;5655;48.744;9.162;2022-09-20T01:35:14;4.95;;;1.95;;
11197;SDS011;5655;48.744;9.162;2022-09-20T01:45:54;4.45;;;2.17;;
11197;SDS011;5655;48.744;9.162;2022-09-20T01:57:04;4.25;;;1.90;;
11197;SDS011;5655;48.744;9.162;2022-09-20T02:13:54;4.03;;;1.95;;
11197;SDS011;5655;48.744;9.162;2022-09-20T02:16:35;6.53;;;2.45;;
11197;SDS011;5655;48.744;9.162;2022-09-20T02:30:54;6.93;;;2.03;;
11197;SDS011;5655;48.744;9.162;2022-09-20T02:36:07;2.85;;;1.83;;
11197;SDS011;5655;48.744;9.162;2022-09-20T02:39:36;6.20;;;2.08;;
11197;SDS011;5655;48.744;9.162;2022-09-20T02:44:57;7.53;;;2.17;;
11197;SDS011;5655;48.744;9.162;2022-09-20T02:47:32;5.03;;;1.67;;
11197;SDS011;5655;48.744;9.162;2022-09-20T02:55:39;6.00;;;2.00;;
11197;SDS011;5655;48.744;9.162;2022-09-20T03:00:53;5.35;;;2.33;;
11197;SDS011;5655;48.744;9.162;2022-09-20T03:09:17;5.88;;;1.58;;
11197;SDS011;5655;48.744;9.162;2022-09-20T03:14:54;3.75;;;1.70;;
11197;SDS011;5655;48.744;9.162;2022-09-20T03:23:09;4.05;;;1.70;;
11197;SDS011;5655;48.744;9.162;2022-09-20T03:26:10;4.88;;;1.90;;
11197;SDS011;5655;48.744;9.162;2022-09-20T03:31:57;7.18;;;1.92;;
11197;SDS011;5655;48.744;9.162;2022-09-20T03:34:42;3.55;;;1.45;;
11197;SDS011;5655;48.744;9.162;2022-09-20T03:43:02;6.55;;;2.00;;
11197;SDS011;5655;48.744;9.162;2022-09-20T03:45:54;3.83;;;1.60;;
11197;SDS011;5655;48.744;9.162;2022-09-20T03:51:41;5.93;;;1.90;;
11197;SDS011;5655;48.744;9.162;2022-09-20T03:54:53;5.65;;;1.85;;
11197;SDS011;5655;48.744;9.162;2022-09-20T04:04:03;3.25;;;1.65;;
11197;SDS011;5655;48.744;9.162;2022-09-20T04:06:44;4.25;;;2.22;;
11197;SDS011;5655;48.744;9.162;2022-09-20T04:09:28;8.77;;;1.83;;
11197;SDS011;5655;48.744;9.162;2022-09-20T04:12:06;4.13;;;1.58;;
11197;SDS011;5655;48.744;9.162;2022-09-20T04:20:42;5.25;;;1.85;;
11197;SDS011;5655;48.744;9.162;2022-09-20T04:26:02;7.60;;;2.35;;
11197;SDS011;5655;48.744;9.162;2022-09-20T04:28:42;7.72;;;2.33;;
11197;SDS011;5655;48.744;9.162;2022-09-20T04:31:28;8.63;;;1.65;;
11197;SDS011;5655;48.744;9.162;2022-09-20T04:34:00;5.32;;;1.85;;
11197;SDS011;5655;48.744;9.162;2022-09-20T04:39:48;6.20;;;1.90;;
11197;SDS011;5655;48.744;9.162;2022-09-20T04:42:30;4.90;;;2.00;;
11197;SDS011;5655;48.744;9.162;2022-09-20T04:59:08;15.07;;;3.88;;
11197;SDS011;5655;48.744;9.162;2022-09-20T05:13:14;10.00;;;4.45;;
11197;SDS011;5655;48.744;9.162;2022-09-20T05:31:08;9.50;;;3.97;;
11197;SDS011;5655;48.744;9.162;2022-09-20T05:33:42;7.60;;;3.58;;
11197;SDS011;5655;48.744;9.162;2022-09-20T05:41:58;8.48;;;3.47;;
11197;SDS011;5655;48.744;9.162;2022-09-20T05:47:48;7.72;;;3.50;;
11197;SDS011;5655;48.744;9.162;2022-09-20T05:58:49;6.90;;;3.80;;
11197;SDS011;5655;48.744;9.162;2022-09-20T06:01:30;7.53;;;3.72;;
11197;SDS011;5655;48.744;9.162;2022-09-20T06:21:06;6.38;;;4.00;;
11197;SDS011;5655;48.744;9.162;2022-09-20T06:23:33;7.13;;;4.00;;
11197;SDS011;5655;48.744;9.162;2022-09-20T06:26:42;6.88;;;3.72;;
11197;SDS011;5655;48.744;9.162;2022-09-20T06:28:54;9.15;;;3.75;;
11197;SDS011;5655;48.744;9.162;2022-09-20T06:31:23;7.70;;;3.70;;
11197;SDS011;5655;48.744;9.162;2022-09-20T06:33:52;11.57;;;6.53;;
11197;SDS011;5655;48.744;9.162;2022-09-20T06:36:35;5.03;;;3.83;;
11197;SDS011;5655;48.744;9.162;2022-09-20T06:40:05;7.45;;;3.67;;
11197;SDS011;5655;48.744;9.162;2022-09-20T06:42:37;7.13;;;4.25;;
11197;SDS011;5655;48.744;9.162;2022-09-20T06:45:03;8.50;;;4.20;;
11197;SDS011;5655;48.744;9.162;2022-09-20T06:47:29;10.35;;;4.05;;
11197;SDS011;5655;48.744;9.162;2022-09-20T06:49:54;8.98;;;4.10;;
11197;SDS011;5655;48.744;9.162;2022-09-20T06:52:20;8.70;;;4.28;;
11197;SDS011;5655;48.744;9.162;2022-09-20T06:54:47;6.40;;;4.13;;
11197;SDS011;5655;48.744;9.162;2022-09-20T06:57:16;6.63;;;4.20;;
11197;SDS011;5655;48.744;9.162;2022-09-20T06:59:45;13.63;;;4.50;;
11197;SDS011;5655;48.744;9.162;2022-09-20T07:02:10;9.73;;;4.18;;
11197;SDS011;5655;48.744;9.162;2022-09-20T07:04:36;6.90;;;4.25;;
11197;SDS011;5655;48.744;9.162;2022-09-20T07:07:05;8.07;;;4.70;;
11197;SDS011;5655;48.744;9.162;2022-09-20T07:09:31;10.38;;;5.05;;
11197;SDS011;5655;48.744;9.162;2022-09-20T07:11:56;7.82;;;4.28;;
11197;SDS011;5655;48.744;9.162;2022-09-20T07:14:25;9.15;;;5.18;;
11197;SDS011;5655;48.744;9.162;2022-09-20T07:16:51;9.88;;;5.10;;
11197;SDS011;5655;48.744;9.162;2022-09-20T07:19:18;9.02;;;4.60;;
11197;SDS011;5655;48.744;9.162;2022-09-20T07:21:43;8.80;;;4.00;;
11197;SDS011;5655;48.744;9.162;2022-09-20T07:24:08;6.50;;;3.70;;
11197;SDS011;5655;48.744;9.162;2022-09-20T07:26:34;9.95;;;4.18;;
11197;SDS011;5655;48.744;9.162;2022-09-20T07:28:59;10.65;;;3.80;;
11197;SDS011;5655;48.744;9.162;2022-09-20T07:31:27;9.85;;;3.20;;
11197;SDS011;5655;48.744;9.162;2022-09-20T07:33:53;9.30;;;4.10;;
11197;SDS011;5655;48.744;9.162;2022-09-20T07:36:19;11.15;;;3.92;;
11197;SDS011;5655;48.744;9.162;2022-09-20T07:38:46;8.70;;;4.22;;
11197;SDS011;5655;48.744;9.162;2022-09-20T07:41:12;9.27;;;3.63;;
11197;SDS011;5655;48.744;9.162;2022-09-20T07:43:38;8.57;;;3.47;;
11197;SDS011;5655;48.744;9.162;2022-09-20T07:46:03;10.93;;;3.72;;
11197;SDS011;5655;48.744;9.162;2022-09-20T07:48:33;6.72;;;3.95;;
11197;SDS011;5655;48.744;9.162;2022-09-20T07:51:07;6.68;;;3.15;;
11197;SDS011;5655;48.744;9.162;2022-09-20T07:53:35;6.93;;;3.17;;
11197;SDS011;5655;48.744;9.162;2022-09-20T07:56:09;7.70;;;3.17;;
11197;SDS011;5655;48.744;9.162;2022-09-20T07:58:37;7.32;;;3.45;;
11197;SDS011;5655;48.744;9.162;2022-09-20T08:01:03;8.23;;;3.45;;
11197;SDS011;5655;48.744;9.162;2022-09-20T08:03:31;11.60;;;3.10;;
11197;SDS011;5655;48.744;9.162;2022-09-20T08:05:59;6.65;;;3.15;;
11197;SDS011;5655;48.744;9.162;2022-09-20T08:08:26;4.93;;;2.22;;
11197;SDS011;5655;48.744;9.162;2022-09-20T08:10:53;10.52;;;3.05;;
11197;SDS011;5655;48.744;9.162;2022-09-20T08:13:26;9.38;;;2.75;;
11197;SDS011;5655;48.744;9.162;2022-09-20T08:15:59;12.52;;;2.80;;
11197;SDS011;5655;48.744;9.162;2022-09-20T08:18:26;4.80;;;2.35;;
11197;SDS011;5655;48.744;9.162;2022-09-20T08:20:52;7.82;;;2.28;;
11197;SDS011;5655;48.744;9.162;2022-09-20T08:23:19;7.43;;;2.35;;
11197;SDS011;5655;48.744;9.162;2022-09-20T08:25:44;4.38;;;2.33;;
11197;SDS011;5655;48.744;9.162;2022-09-20T08:28:12;5.72;;;2.00;;
11197;SDS011;5655;48.744;9.162;2022-09-20T08:30:37;7.15;;;2.20;;
11197;SDS011;5655;48.744;9.162;2022-09-20T08:33:03;5.43;;;2.10;;
11197;SDS011;5655;48.744;9.162;2022-09-20T08:35:28;5.93;;;2.45;;
11197;SDS011;5655;48.744;9.162;2022-09-20T08:37:54;8.05;;;2.25;;
11197;SDS011;5655;48.744;9.162;2022-09-20T08:40:19;7.15;;;2.25;;
11197;SDS011;5655;48.744;9.162;2022-09-20T08:42:47;5.72;;;1.88;;
11197;SDS011;5655;48.744;9.162;2022-09-20T08:45:14;5.13;;;1.73;;
11197;SDS011;5655;48.744;9.162;2022-09-20T08:47:53;8.23;;;1.70;;
11197;SDS011;5655;48.744;9.162;2022-09-20T08:50:22;7.65;;;2.15;;
11197;SDS011;5655;48.744;9.162;2022-09-20T08:52:48;6.47;;;2.22;;
11197;SDS011;5655;48.744;9.162;2022-09-20T08:55:19;4.90;;;1.90;;
11197;SDS011;5655;48.744;9.162;2022-09-20T08:57:48;6.38;;;1.70;;
11197;SDS011;5655;48.744;9.162;2022-09-20T09:00:17;8.55;;;1.75;;
11197;SDS011;5655;48.744;9.162;2022-09-20T09:02:45;6.47;;;1.75;;
11197;SDS011;5655;48.744;9.162;2022-09-20T09:08:17;4.40;;;1.52;;
11197;SDS011;5655;48.744;9.162;2022-09-20T09:10:44;6.88;;;1.55;;
11197;SDS011;5655;48.744;9.162;2022-09-20T09:13:17;5.45;;;1.88;;
11197;SDS011;5655;48.744;9.162;2022-09-20T09:15:50;5.63;;;1.77;;
11197;SDS011;5655;48.744;9.162;2022-09-20T09:18:21;4.35;;;1.50;;
11197;SDS011;5655;48.744;9.162;2022-09-20T09:20:59;6.32;;;1.83;;
11197;SDS011;5655;48.744;9.162;2022-09-20T09:23:28;8.80;;;2.38;;
11197;SDS011;5655;48.744;9.162;2022-09-20T09:25:59;5.57;;;1.75;;
11197;SDS011;5655;48.744;9.162;2022-09-20T09:28:29;5.95;;;1.88;;
11197;SDS011;5655;48.744;9.162;2022-09-20T09:31:20;4.65;;;1.73;;
11197;SDS011;5655;48.744;9.162;2022-09-20T09:33:49;4.32;;;1.10;;
11197;SDS011;5655;48.744;9.162;2022-09-20T09:36:16;6.20;;;1.60;;
11197;SDS011;5655;48.744;9.162;2022-09-20T09:38:46;5.57;;;1.42;;
11197;SDS011;5655;48.744;9.162;2022-09-20T09:44:04;4.88;;;1.40;;
11197;SDS011;5655;48.744;9.162;2022-09-20T09:46:34;4.47;;;1.30;;
11197;SDS011;5655;48.744;9.162;2022-09-20T09:51:41;4.40;;;1.75;;
11197;SDS011;5655;48.744;9.162;2022-09-20T09:54:21;5.53;;;1.45;;
11197;SDS011;5655;48.744;9.162;2022-09-20T10:02:17;7.57;;;1.70;;
11197;SDS011;5655;48.744;9.162;2022-09-20T10:05:15;3.90;;;1.55;;
11197;SDS011;5655;48.744;9.162;2022-09-20T10:07:52;7.28;;;1.77;;
11197;SDS011;5655;48.744;9.162;2022-09-20T10:18:39;3.70;;;1.65;;
11197;SDS011;5655;48.744;9.162;2022-09-20T10:32:57;7.57;;;2.63;;
11197;SDS011;5655;48.744;9.162;2022-09-20T10:38:42;3.97;;;1.48;;
11197;SDS011;5655;48.744;9.162;2022-09-20T10:41:21;7.47;;;1.60;;
11197;SDS011;5655;48.744;9.162;2022-09-20T10:55:22;6.70;;;1.48;;
11197;SDS011;5655;48.744;9.162;2022-09-20T10:58:07;6.50;;;1.38;;
11197;SDS011;5655;48.744;9.162;2022-09-20T11:03:49;3.97;;;1.40;;
11197;SDS011;5655;48.744;9.162;2022-09-20T11:06:41;8.23;;;1.58;;
11197;SDS011;5655;48.744;9.162;2022-09-20T11:09:22;3.70;;;1.60;;
11197;SDS011;5655;48.744;9.162;2022-09-20T11:14:49;5.43;;;1.70;;
11197;SDS011;5655;48.744;9.162;2022-09-20T11:17:31;5.85;;;1.58;;
11197;SDS011;5655;48.744;9.162;2022-09-20T11:22:48;4.90;;;1.77;;
11197;SDS011;5655;48.744;9.162;2022-09-20T11:25:38;8.20;;;1.90;;
11197;SDS011;5655;48.744;9.162;2022-09-20T11:30:53;3.58;;;1.30;;
11197;SDS011;5655;48.744;9.162;2022-09-20T11:33:55;3.63;;;1.15;;
11197;SDS011;5655;48.744;9.162;2022-09-20T11:36:36;5.18;;;1.38;;
11197;SDS011;5655;48.744;9.162;2022-09-20T11:39:15;4.90;;;1.42;;
11197;SDS011;5655;48.744;9.162;2022-09-20T11:42:01;4.70;;;1.10;;
11197;SDS011;5655;48.744;9.162;2022-09-20T11:44:29;3.13;;;1.48;;
11197;SDS011;5655;48.744;9.162;2022-09-20T11:47:05;5.18;;;1.38;;
11197;SDS011;5655;48.744;9.162;2022-09-20T11:53:15;3.30;;;1.70;;
11197;SDS011;5655;48.744;9.162;2022-09-20T11:58:26;6.07;;;1.98;;
11197;SDS011;5655;48.744;9.162;2022-09-20T12:00:53;4.25;;;1.73;;
11197;SDS011;5655;48.744;9.162;2022-09-20T12:03:24;3.83;;;1.23;;
11197;SDS011;5655;48.744;9.162;2022-09-20T12:05:55;7.28;;;1.73;;
11197;SDS011;5655;48.744;9.162;2022-09-20T12:08:27;2.35;;;1.15;;
11197;SDS011;5655;48.744;9.162;2022-09-20T12:11:01;6.25;;;1.63;;
11197;SDS011;5655;48.744;9.162;2022-09-20T12:13:29;1.77;;;1.00;;
11197;SDS011;5655;48.744;9.162;2022-09-20T12:16:03;4.57;;;1.75;;
11197;SDS011;5655;48.744;9.162;2022-09-20T12:21:02;6.18;;;1.48;;
11197;SDS011;5655;48.744;9.162;2022-09-20T12:28:51;4.22;;;1.20;;
11197;SDS011;5655;48.744;9.162;2022-09-20T12:39:16;3.70;;;1.17;;
11197;SDS011;5655;48.744;9.162;2022-09-20T12:41:53;6.82;;;1.50;;
11197;SDS011;5655;48.744;9.162;2022-09-20T12:44:25;4.28;;;1.33;;
11197;SDS011;5655;48.744;9.162;2022-09-20T12:46:53;4.65;;;1.50;;
11197;SDS011;5655;48.744;9.162;2022-09-20T12:49:27;3.25;;;1.40;;
11197;SDS011;5655;48.744;9.162;2022-09-20T12:57:57;6.25;;;1.63;;
11197;SDS011;5655;48.744;9.162;2022-09-20T13:00:28;5.95;;;1.45;;
11197;SDS011;5655;48.744;9.162;2022-09-20T13:11:27;4.45;;;1.42;;
11197;SDS011;5655;48.744;9.162;2022-09-20T13:14:02;6.78;;;1.50;;
11197;SDS011;5655;48.744;9.162;2022-09-20T13:19:06;4.32;;;1.20;;
11197;SDS011;5655;48.744;9.162;2022-09-20T13:21:37;4.43;;;1.10;;
11197;SDS011;5655;48.744;9.162;2022-09-20T13:24:05;2.28;;;0.98;;
11197;SDS011;5655;48.744;9.162;2022-09-20T13:26:33;4.63;;;1.20;;
11197;SDS011;5655;48.744;9.162;2022-09-20T13:29:03;3.47;;;1.40;;
11197;SDS011;5655;48.744;9.162;2022-09-20T13:31:34;3.97;;;1.60;;
11197;SDS011;5655;48.744;9.162;2022-09-20T13:36:50;7.53;;;1.40;;
11197;SDS011;5655;48.744;9.162;2022-09-20T13:39:26;5.68;;;1.48;;
11197;SDS011;5655;48.744;9.162;2022-09-20T13:42:03;3.88;;;1.38;;
11197;SDS011;5655;48.744;9.162;2022-09-20T13:44:32;5.60;;;1.65;;
11197;SDS011;5655;48.744;9.162;2022-09-20T13:46:58;4.65;;;1.60;;
11197;SDS011;5655;48.744;9.162;2022-09-20T13:49:24;3.50;;;1.60;;
11197;SDS011;5655;48.744;9.162;2022-09-20T13:51:55;3.50;;;1.60;;
11197;SDS011;5655;48.744;9.162;2022-09-20T13:56:52;4.43;;;1.48;;
11197;SDS011;5655;48.744;9.162;2022-09-20T13:59:20;5.55;;;1.63;;
11197;SDS011;5655;48.744;9.162;2022-09-20T14:01:48;3.50;;;1.30;;
11197;SDS011;5655;48.744;9.162;2022-09-20T14:04:22;5.50;;;1.58;;
11197;SDS011;5655;48.744;9.162;2022-09-20T14:06:50;5.68;;;1.70;;
11197;SDS011;5655;48.744;9.162;2022-09-20T14:09:19;3.60;;;1.48;;
11197;SDS011;5655;48.744;9.162;2022-09-20T14:11:56;3.80;;;1.50;;
11197;SDS011;5655;48.744;9.162;2022-09-20T14:14:23;2.10;;;1.20;;
11197;SDS011;5655;48.744;9.162;2022-09-20T14:16:49;3.47;;;1.25;;
11197;SDS011;5655;48.744;9.162;2022-09-20T14:19:17;5.68;;;1.60;;
11197;SDS011;5655;48.744;9.162;2022-09-20T14:21:46;5.68;;;1.42;;
11197;SDS011;5655;48.744;9.162;2022-09-20T14:26:38;4.95;;;1.55;;
11197;SDS011;5655;48.744;9.162;2022-09-20T14:32:03;3.53;;;1.35;;
11197;SDS011;5655;48.744;9.162;2022-09-20T14:34:37;3.53;;;1.40;;
11197;SDS011;5655;48.744;9.162;2022-09-20T14:37:05;6.00;;;1.70;;
11197;SDS011;5655;48.744;9.162;2022-09-20T14:39:42;7.00;;;1.42;;
11197;SDS011;5655;48.744;9.162;2022-09-20T14:42:56;3.67;;;1.13;;
11197;SDS011;5655;48.744;9.162;2022-09-20T14:45:07;2.80;;;1.20;;
11197;SDS011;5655;48.744;9.162;2022-09-20T14:50:31;3.55;;;1.35;;
11197;SDS011;5655;48.744;9.162;2022-09-20T14:53:40;7.22;;;1.30;;
11197;SDS011;5655;48.744;9.162;2022-09-20T14:56:07;4.45;;;1.70;;
11197;SDS011;5655;48.744;9.162;2022-09-20T15:01:30;8.60;;;1.45;;
11197;SDS011;5655;48.744;9.162;2022-09-20T15:03:57;3.33;;;1.50;;
11197;SDS011;5655;48.744;9.162;2022-09-20T15:06:22;3.10;;;1.33;;
11197;SDS011;5655;48.744;9.162;2022-09-20T15:08:48;5.32;;;2.00;;
11197;SDS011;5655;48.744;9.162;2022-09-20T15:11:14;2.67;;;1.25;;
11197;SDS011;5655;48.744;9.162;2022-09-20T15:13:41;5.30;;;1.80;;
11197;SDS011;5655;48.744;9.162;2022-09-20T15:16:07;4.63;;;1.52;;
11197;SDS011;5655;48.744;9.162;2022-09-20T15:18:37;3.53;;;1.58;;
11197;SDS011;5655;48.744;9.162;2022-09-20T15:21:04;2.85;;;1.52;;
11197;SDS011;5655;48.744;9.162;2022-09-20T15:23:30;1.88;;;1.38;;
11197;SDS011;5655;48.744;9.162;2022-09-20T15:25:55;4.30;;;1.60;;
11197;SDS011;5655;48.744;9.162;2022-09-20T15:28:21;4.68;;;1.63;;
11197;SDS011;5655;48.744;9.162;2022-09-20T15:30:47;5.80;;;1.58;;
11197;SDS011;5655;48.744;9.162;2022-09-20T15:33:17;2.85;;;1.33;;
11197;SDS011;5655;48.744;9.162;2022-09-20T15:35:44;2.63;;;1.33;;
11197;SDS011;5655;48.744;9.162;2022-09-20T15:38:10;1.45;;;1.10;;
11197;SDS011;5655;48.744;9.162;2022-09-20T15:40:40;1.23;;;1.00;;
11197;SDS011;5655;48.744;9.162;2022-09-20T15:43:06;4.47;;;1.50;;
11197;SDS011;5655;48.744;9.162;2022-09-20T15:45:34;3.55;;;2.28;;
11197;SDS011;5655;48.744;9.162;2022-09-20T15:48:00;3.58;;;1.95;;
11197;SDS011;5655;48.744;9.162;2022-09-20T15:50:27;2.47;;;1.83;;
11197;SDS011;5655;48.744;9.162;2022-09-20T15:52:53;3.40;;;2.03;;
11197;SDS011;5655;48.744;9.162;2022-09-20T15:55:19;6.00;;;2.05;;
11197;SDS011;5655;48.744;9.162;2022-09-20T15:57:45;2.83;;;1.40;;
11197;SDS011;5655;48.744;9.162;2022-09-20T16:00:13;2.58;;;1.67;;
11197;SDS011;5655;48.744;9.162;2022-09-20T16:02:40;3.50;;;1.15;;
11197;SDS011;5655;48.744;9.162;2022-09-20T16:05:06;1.90;;;1.42;;
11197;SDS011;5655;48.744;9.162;2022-09-20T16:07:33;4.07;;;2.00;;
11197;SDS011;5655;48.744;9.162;2022-09-20T16:09:59;3.05;;;1.85;;
11197;SDS011;5655;48.744;9.162;2022-09-20T16:12:25;2.65;;;1.30;;
11197;SDS011;5655;48.744;9.162;2022-09-20T16:14:50;2.28;;;1.35;;
11197;SDS011;5655;48.744;9.162;2022-09-20T16:17:16;2.47;;;1.30;;
11197;SDS011;5655;48.744;9.162;2022-09-20T16:19:42;1.60;;;1.30;;
11197;SDS011;5655;48.744;9.162;2022-09-20T16:22:09;1.88;;;1.23;;
11197;SDS011;5655;48.744;9.162;2022-09-20T16:24:36;3.72;;;1.45;;
11197;SDS011;5655;48.744;9.162;2022-09-20T16:27:03;2.15;;;1.30;;
11197;SDS011;5655;48.744;9.162;2022-09-20T16:29:30;5.25;;;1.50;;
11197;SDS011;5655;48.744;9.162;2022-09-20T16:31:56;2.72;;;1.10;;
11197;SDS011;5655;48.744;9.162;2022-09-20T16:36:51;3.08;;;1.35;;
11197;SDS011;5655;48.744;9.162;2022-09-20T16:39:18;2.38;;;1.25;;
11197;SDS011;5655;48.744;9.162;2022-09-20T16:41:46;1.48;;;1.17;;
11197;SDS011;5655;48.744;9.162;2022-09-20T16:44:14;2.30;;;1.60;;
11197;SDS011;5655;48.744;9.162;2022-09-20T16:46:40;3.85;;;1.50;;
11197;SDS011;5655;48.744;9.162;2022-09-20T16:49:06;3.50;;;1.75;;
11197;SDS011;5655;48.744;9.162;2022-09-20T16:51:34;4.70;;;1.95;;
11197;SDS011;5655;48.744;9.162;2022-09-20T16:54:04;3.30;;;1.60;;
11197;SDS011;5655;48.744;9.162;2022-09-20T16:56:38;3.92;;;1.30;;
11197;SDS011;5655;48.744;9.162;2022-09-20T16:59:05;5.40;;;1.60;;
11197;SDS011;5655;48.744;9.162;2022-09-20T17:01:31;2.22;;;1.30;;
11197;SDS011;5655;48.744;9.162;2022-09-20T17:03:58;3.17;;;1.42;;
11197;SDS011;5655;48.744;9.162;2022-09-20T17:06:23;4.05;;;1.40;;
11197;SDS011;5655;48.744;9.162;2022-09-20T17:08:53;2.58;;;1.60;;
11197;SDS011;5655;48.744;9.162;2022-09-20T17:11:20;2.25;;;1.25;;
11197;SDS011;5655;48.744;9.162;2022-09-20T17:13:49;2.05;;;1.20;;
11197;SDS011;5655;48.744;9.162;2022-09-20T17:16:20;3.00;;;1.60;;
11197;SDS011;5655;48.744;9.162;2022-09-20T17:18:56;2.03;;;1.48;;
11197;SDS011;5655;48.744;9.162;2022-09-20T17:21:24;1.92;;;1.20;;
11197;SDS011;5655;48.744;9.162;2022-09-20T17:23:51;4.75;;;1.50;;
11197;SDS011;5655;48.744;9.162;2022-09-20T17:28:50;2.05;;;1.50;;
11197;SDS011;5655;48.744;9.162;2022-09-20T17:31:20;4.32;;;1.65;;
11197;SDS011;5655;48.744;9.162;2022-09-20T17:33:49;2.30;;;1.55;;
11197;SDS011;5655;48.744;9.162;2022-09-20T17:36:16;3.13;;;1.90;;
11197;SDS011;5655;48.744;9.162;2022-09-20T17:38:43;3.67;;;1.67;;
11197;SDS011;5655;48.744;9.162;2022-09-20T17:41:16;4.07;;;1.65;;
11197;SDS011;5655;48.744;9.162;2022-09-20T17:43:43;1.83;;;1.48;;
11197;SDS011;5655;48.744;9.162;2022-09-20T17:48:35;1.85;;;1.65;;
11197;SDS011;5655;48.744;9.162;2022-09-20T17:51:01;4.00;;;1.98;;
11197;SDS011;5655;48.744;9.162;2022-09-20T17:53:28;7.05;;;2.20;;
11197;SDS011;5655;48.744;9.162;2022-09-20T17:55:55;2.63;;;1.75;;
11197;SDS011;5655;48.744;9.162;2022-09-20T17:58:21;3.83;;;2.10;;
11197;SDS011;5655;48.744;9.162;2022-09-20T18:00:47;3.50;;;1.92;;
11197;SDS011;5655;48.744;9.162;2022-09-20T18:03:13;2.95;;;1.92;;
11197;SDS011;5655;48.744;9.162;2022-09-20T18:05:39;3.95;;;2.00;;
11197;SDS011;5655;48.744;9.162;2022-09-20T18:08:05;3.00;;;2.08;;
11197;SDS011;5655;48.744;9.162;2022-09-20T18:10:30;2.72;;;2.13;;
11197;SDS011;5655;48.744;9.162;2022-09-20T18:12:56;5.80;;;2.20;;
11197;SDS011;5655;48.744;9.162;2022-09-20T18:15:21;4.90;;;2.00;;
11197;SDS011;5655;48.744;9.162;2022-09-20T18:17:47;7.03;;;2.35;;
11197;SDS011;5655;48.744;9.162;2022-09-20T18:20:13;4.47;;;2.90;;
11197;SDS011;5655;48.744;9.162;2022-09-20T18:22:39;6.07;;;2.55;;
11197;SDS011;5655;48.744;9.162;2022-09-20T18:25:04;4.70;;;2.17;;
11197;SDS011;5655;48.744;9.162;2022-09-20T18:27:29;5.47;;;2.70;;
11197;SDS011;5655;48.744;9.162;2022-09-20T18:29:55;3.42;;;2.10;;
11197;SDS011;5655;48.744;9.162;2022-09-20T18:32:20;4.50;;;2.13;;
11197;SDS011;5655;48.744;9.162;2022-09-20T18:34:46;3.60;;;2.22;;
11197;SDS011;5655;48.744;9.162;2022-09-20T18:37:15;7.38;;;2.20;;
11197;SDS011;5655;48.744;9.162;2022-09-20T18:39:41;3.28;;;2.35;;
11197;SDS011;5655;48.744;9.162;2022-09-20T18:42:07;3.40;;;2.35;;
11197;SDS011;5655;48.744;9.162;2022-09-20T18:44:34;5.15;;;2.60;;
11197;SDS011;5655;48.744;9.162;2022-09-20T18:47:00;6.50;;;2.72;;
11197;SDS011;5655;48.744;9.162;2022-09-20T18:49:27;4.78;;;2.58;;
11197;SDS011;5655;48.744;9.162;2022-09-20T18:51:54;5.57;;;3.10;;
11197;SDS011;5655;48.744;9.162;2022-09-20T18:54:20;5.00;;;3.17;;
11197;SDS011;5655;48.744;9.162;2022-09-20T18:56:46;7.53;;;3.05;;
11197;SDS011;5655;48.744;9.162;2022-09-20T18:59:15;5.43;;;2.90;;
11197;SDS011;5655;48.744;9.162;2022-09-20T19:09:42;4.15;;;3.00;;
11197;SDS011;5655;48.744;9.162;2022-09-20T19:18:01;5.28;;;2.67;;
11197;SDS011;5655;48.744;9.162;2022-09-20T19:20:42;6.28;;;2.80;;
11197;SDS011;5655;48.744;9.162;2022-09-20T19:26:07;6.45;;;2.80;;
11197;SDS011;5655;48.744;9.162;2022-09-20T19:28:45;4.15;;;2.65;;
11197;SDS011;5655;48.744;9.162;2022-09-20T19:31:18;6.78;;;3.47;;
11197;SDS011;5655;48.744;9.162;2022-09-20T19:33:49;6.70;;;2.47;;
11197;SDS011;5655;48.744;9.162;2022-09-20T19:36:19;6.75;;;3.25;;
11197;SDS011;5655;48.744;9.162;2022-09-20T19:47:25;6.55;;;2.63;;
11197;SDS011;5655;48.744;9.162;2022-09-20T19:49:30;2.53;;;2.17;;
11197;SDS011;5655;48.744;9.162;2022-09-20T19:52:19;5.90;;;2.42;;
11197;SDS011;5655;48.744;9.162;2022-09-20T19:54:46;4.70;;;2.90;;
11197;SDS011;5655;48.744;9.162;2022-09-20T19:57:15;6.35;;;2.55;;
11197;SDS011;5655;48.744;9.162;2022-09-20T19:59:43;5.90;;;2.75;;
11197;SDS011;5655;48.744;9.162;2022-09-20T20:02:10;6.75;;;2.80;;
11197;SDS011;5655;48.744;9.162;2022-09-20T20:04:36;6.13;;;2.92;;
11197;SDS011;5655;48.744;9.162;2022-09-20T20:12:58;5.28;;;2.40;;
11197;SDS011;5655;48.744;9.162;2022-09-20T20:18:22;7.43;;;2.80;;
11197;SDS011;5655;48.744;9.162;2022-09-20T20:20:53;5.88;;;2.45;;
11197;SDS011;5655;48.744;9.162;2022-09-20T20:23:27;5.60;;;2.72;;
11197;SDS011;5655;48.744;9.162;2022-09-20T20:28:45;3.92;;;2.78;;
11197;SDS011;5655;48.744;9.162;2022-09-20T20:31:10;6.00;;;2.72;;
11197;SDS011;5655;48.744;9.162;2022-09-20T20:33:36;3.88;;;2.50;;
11197;SDS011;5655;48.744;9.162;2022-09-20T20:36:03;5.65;;;2.97;;
11197;SDS011;5655;48.744;9.162;2022-09-20T20:38:33;7.05;;;2.72;;
11197;SDS011;5655;48.744;9.162;2022-09-20T20:41:11;5.43;;;2.97;;
11197;SDS011;5655;48.744;9.162;2022-09-20T20:43:39;4.32;;;3.20;;
11197;SDS011;5655;48.744;9.162;2022-09-20T20:46:07;3.92;;;2.50;;
11197;SDS011;5655;48.744;9.162;2022-09-20T20:48:33;6.60;;;2.85;;
11197;SDS011;5655;48.744;9.162;2022-09-20T20:51:01;7.13;;;2.75;;
11197;SDS011;5655;48.744;9.162;2022-09-20T20:53:41;5.60;;;2.60;;
11197;SDS011;5655;48.744;9.162;2022-09-20T20:56:13;5.68;;;2.92;;
11197;SDS011;5655;48.744;9.162;2022-09-20T20:58:39;4.72;;;3.05;;
11197;SDS011;5655;48.744;9.162;2022-09-20T21:01:16;7.32;;;3.05;;
11197;SDS011;5655;48.744;9.162;2022-09-20T21:03:46;6.20;;;2.63;;
11197;SDS011;5655;48.744;9.162;2022-09-20T21:06:13;7.78;;;2.70;;
11197;SDS011;5655;48.744;9.162;2022-09-20T21:08:40;5.78;;;3.28;;
11197;SDS011;5655;48.744;9.162;2022-09-20T21:11:09;4.80;;;3.05;;
11197;SDS011;5655;48.744;9.162;2022-09-20T21:13:55;5.03;;;3.05;;